createdAt,value
2023-11-14T00:00:05.984Z,68.28
2023-11-14T00:03:10.516Z,68.13
2023-11-14T00:06:14.708Z,67.93
2023-11-14T00:09:19.018Z,68.66
2023-11-14T00:12:25.515Z,68.85
2023-11-14T00:15:29.818Z,68.35
2023-11-14T00:18:34.039Z,69.39
2023-11-14T00:21:38.129Z,68.68
2023-11-14T00:24:42.671Z,69.05
2023-11-14T00:27:46.780Z,68.39
2023-11-14T00:30:51.203Z,67.88
2023-11-14T00:33:55.536Z,68.34
2023-11-14T00:37:04.958Z,68.93
2023-11-14T00:40:10.346Z,67.96
2023-11-14T00:43:15.688Z,67.16
2023-11-14T00:46:19.964Z,68.17
2023-11-14T00:49:24.282Z,67.41
2023-11-14T00:52:28.383Z,67.73
2023-11-14T00:55:32.518Z,67.57
2023-11-14T00:58:36.619Z,68.08
2023-11-14T01:01:40.742Z,68.14
2023-11-14T01:04:44.832Z,68.79
2023-11-14T01:07:48.917Z,67.83
2023-11-14T01:10:53.073Z,66.94
2023-11-14T01:13:58.446Z,67.95
2023-11-14T01:17:02.794Z,67.18
2023-11-14T01:20:07.744Z,67.32
2023-11-14T01:23:12.296Z,66.91
2023-11-14T01:26:16.633Z,67.10
2023-11-14T01:29:20.673Z,68.65
2023-11-14T01:32:24.885Z,69.26
2023-11-14T01:35:29.154Z,68.63
2023-11-14T01:38:33.223Z,68.69
2023-11-14T01:41:39.921Z,69.48
2023-11-14T01:44:44.134Z,68.48
2023-11-14T01:47:49.925Z,68.85
2023-11-14T01:50:54.298Z,67.14
2023-11-14T01:53:58.921Z,68.67
2023-11-14T01:57:03.130Z,68.67
2023-11-14T02:00:08.025Z,68.15
2023-11-14T02:03:12.037Z,68.64
2023-11-14T02:06:16.046Z,68.77
2023-11-14T02:09:22.147Z,68.29
2023-11-14T02:12:26.828Z,68.00
2023-11-14T02:15:31.081Z,67.29
2023-11-14T02:18:35.091Z,66.87
2023-11-14T02:21:39.829Z,68.23
2023-11-14T02:24:56.383Z,67.99
2023-11-14T02:28:00.419Z,68.79
2023-11-14T02:31:04.677Z,68.22
2023-11-14T02:34:08.884Z,68.07
2023-11-14T02:37:13.172Z,66.95
2023-11-14T02:40:17.778Z,67.22
2023-11-14T02:43:22.083Z,67.97
2023-11-14T02:46:26.037Z,67.72
2023-11-14T02:49:52.071Z,67.85
2023-11-14T02:53:00.433Z,68.03
2023-11-14T02:56:05.792Z,67.54
2023-11-14T02:59:09.851Z,68.21
2023-11-14T03:02:13.758Z,67.06
2023-11-14T03:05:18.628Z,67.76
2023-11-14T03:08:24.000Z,67.52
2023-11-14T03:11:28.131Z,68.31
2023-11-14T03:14:32.329Z,69.35
2023-11-14T03:17:36.518Z,70.29
2023-11-14T03:20:40.740Z,74.57
2023-11-14T03:23:44.942Z,75.42
2023-11-14T03:26:48.829Z,76.86
2023-11-14T03:29:52.938Z,77.35
2023-11-14T03:32:57.357Z,78.77
2023-11-14T03:36:01.637Z,79.17
2023-11-14T03:39:05.713Z,79.45
2023-11-14T03:42:10.358Z,80.64
2023-11-14T03:45:14.485Z,79.29
2023-11-14T03:48:18.763Z,79.81
2023-11-14T03:51:22.805Z,79.52
2023-11-14T03:54:27.045Z,80.18
2023-11-14T03:57:30.931Z,79.72
2023-11-14T04:00:34.957Z,79.14
2023-11-14T04:03:39.467Z,79.01
2023-11-14T04:06:44.616Z,78.34
2023-11-14T04:09:48.790Z,78.32
2023-11-14T04:12:52.964Z,77.51
2023-11-14T04:15:57.129Z,77.47
2023-11-14T04:19:02.017Z,76.11
2023-11-14T04:22:06.559Z,75.72
2023-11-14T04:25:11.751Z,75.96
2023-11-14T04:28:15.569Z,74.51
2023-11-14T04:31:19.942Z,73.82
2023-11-14T04:34:24.125Z,75.05
2023-11-14T04:37:28.458Z,73.92
2023-11-14T04:40:32.377Z,73.94
2023-11-14T04:43:36.523Z,72.70
2023-11-14T04:46:47.126Z,73.27
2023-11-14T04:49:51.159Z,72.77
2023-11-14T04:52:55.103Z,72.34
2023-11-14T04:55:59.533Z,71.27
2023-11-14T04:59:04.189Z,71.41
2023-11-14T05:02:09.292Z,71.95
2023-11-14T05:05:13.402Z,71.36
2023-11-14T05:08:17.415Z,71.28
2023-11-14T05:11:21.685Z,72.30
2023-11-14T05:14:25.681Z,73.13
2023-11-14T05:17:29.827Z,72.97
2023-11-14T05:20:33.676Z,72.30
2023-11-14T05:23:37.758Z,72.70
2023-11-14T05:26:41.922Z,72.54
2023-11-14T05:29:46.529Z,71.56
2023-11-14T05:32:53.700Z,72.89
2023-11-14T05:35:57.647Z,73.96
2023-11-14T05:39:01.563Z,73.51
2023-11-14T05:42:06.759Z,74.08
2023-11-14T05:45:11.510Z,74.22
2023-11-14T05:48:17.481Z,73.84
2023-11-14T05:51:22.029Z,72.78
2023-11-14T05:54:26.120Z,72.71
2023-11-14T05:57:30.136Z,72.33
2023-11-14T06:00:34.308Z,74.25
2023-11-14T06:03:38.403Z,76.26
2023-11-14T06:06:42.652Z,77.34
2023-11-14T06:09:47.191Z,77.39
2023-11-14T06:12:52.547Z,77.45
2023-11-14T06:15:56.758Z,78.81
2023-11-14T06:19:01.127Z,79.01
2023-11-14T06:22:05.980Z,78.15
2023-11-14T06:25:10.129Z,77.74
2023-11-14T06:28:14.322Z,76.87
2023-11-14T06:31:18.315Z,77.00
2023-11-14T06:34:22.582Z,75.76
2023-11-14T06:37:26.486Z,75.66
2023-11-14T06:40:30.957Z,75.14
2023-11-14T06:43:36.250Z,75.08
2023-11-14T06:46:40.524Z,74.31
2023-11-14T06:49:45.110Z,73.84
2023-11-14T06:52:49.585Z,73.16
2023-11-14T06:55:53.323Z,71.83
2023-11-14T06:58:57.674Z,71.58
2023-11-14T07:02:02.620Z,70.75
2023-11-14T07:05:07.247Z,71.29
2023-11-14T07:08:11.964Z,70.86
2023-11-14T07:11:16.809Z,70.16
2023-11-14T07:14:25.291Z,68.74
2023-11-14T07:17:29.581Z,69.48
2023-11-14T07:20:33.882Z,69.87
2023-11-14T07:23:38.002Z,69.59
2023-11-14T07:26:45.038Z,69.85
2023-11-14T07:29:49.407Z,69.44
2023-11-14T07:32:53.250Z,69.61
2023-11-14T07:35:57.515Z,69.28
2023-11-14T07:39:01.557Z,69.33
2023-11-14T07:42:06.091Z,69.05
2023-11-14T07:45:12.898Z,69.29
2023-11-14T07:48:17.801Z,69.45
2023-11-14T07:51:21.926Z,68.07
2023-11-14T07:54:25.989Z,68.49
2023-11-14T07:57:31.141Z,67.80
2023-11-14T08:00:35.609Z,68.26
2023-11-14T08:03:40.566Z,67.99
2023-11-14T08:06:45.011Z,68.97
2023-11-14T08:09:53.032Z,67.83
2023-11-14T08:12:57.367Z,67.32
2023-11-14T08:16:01.788Z,64.36
2023-11-14T08:19:06.101Z,65.73
2023-11-14T08:22:10.499Z,66.45
2023-11-14T08:25:14.486Z,66.16
2023-11-14T08:28:21.451Z,65.75
2023-11-14T08:31:26.055Z,65.46
2023-11-14T08:34:30.513Z,65.46
2023-11-14T08:37:34.662Z,64.94
2023-11-14T08:40:39.044Z,65.30
2023-11-14T08:43:43.521Z,65.17
2023-11-14T08:46:48.812Z,66.16
2023-11-14T08:49:55.747Z,65.02
2023-11-14T08:52:59.928Z,64.91
2023-11-14T08:56:04.786Z,63.55
2023-11-14T08:59:09.039Z,64.40
2023-11-14T09:02:14.200Z,63.83
2023-11-14T09:05:18.690Z,65.04
2023-11-14T09:08:24.184Z,64.12
2023-11-14T09:11:30.565Z,64.45
2023-11-14T09:14:35.552Z,63.74
2023-11-14T09:17:45.523Z,63.50
2023-11-14T09:20:52.198Z,65.08
2023-11-14T09:23:57.954Z,65.36
2023-11-14T09:27:02.207Z,64.99
2023-11-14T09:30:06.869Z,65.90
2023-11-14T09:33:11.171Z,67.84
2023-11-14T09:36:15.469Z,67.86
2023-11-14T09:39:26.686Z,68.24
2023-11-14T09:42:31.627Z,68.33
2023-11-14T09:45:36.657Z,67.79
2023-11-14T09:48:41.291Z,65.13
2023-11-14T09:51:50.729Z,64.75
2023-11-14T09:54:54.955Z,63.97
2023-11-14T09:57:59.774Z,64.50
2023-11-14T10:01:04.102Z,64.21
2023-11-14T10:04:11.558Z,64.28
2023-11-14T10:07:21.211Z,64.80
2023-11-14T10:10:25.346Z,64.50
2023-11-14T10:13:29.668Z,64.42
2023-11-14T10:16:33.808Z,63.82
2023-11-14T10:19:38.531Z,63.38
2023-11-14T10:22:50.862Z,63.41
2023-11-14T10:26:04.722Z,63.08
2023-11-14T10:29:09.169Z,64.48
2023-11-14T10:32:14.207Z,64.01
2023-11-14T10:35:19.089Z,63.83
2023-11-14T10:38:26.302Z,66.47
2023-11-14T10:41:31.561Z,67.91
2023-11-14T10:44:35.800Z,67.84
2023-11-14T10:47:43.737Z,67.74
2023-11-14T10:50:48.856Z,68.32
2023-11-14T10:53:55.932Z,67.92
2023-11-14T10:57:05.618Z,68.55
2023-11-14T11:00:15.486Z,66.94
2023-11-14T11:03:20.322Z,65.03
2023-11-14T11:06:29.149Z,63.89
2023-11-14T11:09:33.551Z,61.44
2023-11-14T11:12:38.709Z,63.99
2023-11-14T11:15:47.636Z,66.80
2023-11-14T11:18:52.002Z,63.06
2023-11-14T11:22:07.803Z,57.46
2023-11-14T11:25:28.546Z,49.10
2023-11-14T11:28:34.853Z,47.05
2023-11-14T11:31:39.917Z,49.03
2023-11-14T11:34:43.989Z,51.00
2023-11-14T11:37:58.365Z,55.26
2023-11-14T11:41:12.617Z,57.63
2023-11-14T11:44:19.376Z,58.62
2023-11-14T11:47:36.741Z,55.29
2023-11-14T11:50:42.836Z,55.38
2023-11-14T11:53:46.774Z,56.74
2023-11-14T11:56:51.018Z,54.02
2023-11-14T11:59:55.616Z,54.36
2023-11-14T12:03:01.215Z,53.68
2023-11-14T12:06:10.963Z,53.58
2023-11-14T12:09:16.296Z,54.21
2023-11-14T12:12:20.389Z,58.82
2023-11-14T12:15:25.472Z,58.16
2023-11-14T12:18:29.490Z,58.55
2023-11-14T12:21:34.507Z,58.37
2023-11-14T12:24:41.609Z,57.79
2023-11-14T12:27:59.549Z,59.27
2023-11-14T12:31:05.380Z,59.94
2023-11-14T12:34:09.700Z,61.21
2023-11-14T12:37:20.266Z,64.13
2023-11-14T12:40:24.301Z,61.38
2023-11-14T12:43:28.737Z,61.54
2023-11-14T12:46:34.618Z,61.17
2023-11-14T12:49:51.617Z,63.00
2023-11-14T12:52:57.583Z,63.36
2023-11-14T12:56:01.882Z,62.96
2023-11-14T12:59:06.947Z,62.59
2023-11-14T13:02:11.301Z,61.98
2023-11-14T13:05:15.625Z,59.37
2023-11-14T13:08:19.976Z,60.14
2023-11-14T13:11:24.505Z,62.50
2023-11-14T13:14:28.304Z,62.60
2023-11-14T13:17:33.135Z,62.56
2023-11-14T13:20:37.436Z,63.34
2023-11-14T13:23:44.634Z,63.26
2023-11-14T13:26:48.974Z,63.62
2023-11-14T13:29:54.306Z,62.54
2023-11-14T13:32:59.747Z,63.47
2023-11-14T13:36:05.675Z,61.67
2023-11-14T13:39:09.609Z,61.74
2023-11-14T13:42:13.648Z,62.23
2023-11-14T13:45:17.515Z,60.34
2023-11-14T13:48:21.864Z,59.36
2023-11-14T13:51:26.284Z,58.38
2023-11-14T13:54:30.314Z,59.10
2023-11-14T13:57:34.353Z,59.18
2023-11-14T14:00:40.631Z,59.42
2023-11-14T14:03:44.826Z,58.63
2023-11-14T14:06:49.568Z,59.39
2023-11-14T14:09:53.946Z,60.73
2023-11-14T14:12:59.405Z,60.03
2023-11-14T14:16:06.564Z,60.75
2023-11-14T14:19:12.284Z,61.39
2023-11-14T14:22:18.542Z,61.76
2023-11-14T14:25:25.319Z,61.38
2023-11-14T14:28:35.930Z,62.36
2023-11-14T14:31:41.852Z,60.75
2023-11-14T14:34:47.814Z,61.45
2023-11-14T14:37:52.000Z,62.08
2023-11-14T14:40:56.131Z,62.27
2023-11-14T14:44:06.644Z,62.63
2023-11-14T14:47:11.046Z,62.45
2023-11-14T14:50:15.278Z,62.95
2023-11-14T14:53:21.253Z,63.84
2023-11-14T14:56:25.784Z,64.71
2023-11-14T14:59:30.454Z,64.25
2023-11-14T15:02:34.398Z,65.57
2023-11-14T15:05:38.870Z,63.98
2023-11-14T15:08:43.214Z,66.27
2023-11-14T15:11:47.259Z,65.38
2023-11-14T15:14:51.015Z,66.59
2023-11-14T15:17:56.656Z,66.56
2023-11-14T15:21:01.079Z,66.59
2023-11-14T15:24:06.342Z,67.94
2023-11-14T15:27:10.555Z,68.72
2023-11-14T15:30:15.276Z,68.15
2023-11-14T15:33:19.349Z,68.70
2023-11-14T15:36:31.021Z,68.56
2023-11-14T15:39:35.219Z,69.31
2023-11-14T15:42:42.809Z,70.00
2023-11-14T15:45:46.815Z,70.12
2023-11-14T15:48:52.509Z,71.40
2023-11-14T15:51:57.872Z,72.02
2023-11-14T15:55:06.039Z,69.92
2023-11-14T15:58:13.671Z,72.30
2023-11-14T16:01:19.165Z,73.52
2023-11-14T16:04:23.530Z,75.03
2023-11-14T16:07:27.382Z,75.67
2023-11-14T16:10:31.663Z,78.59
2023-11-14T16:13:35.921Z,78.13
2023-11-14T16:16:39.922Z,79.11
2023-11-14T16:19:43.762Z,78.45
2023-11-14T16:22:47.792Z,79.60
2023-11-14T16:25:54.820Z,80.22
2023-11-14T16:29:02.618Z,79.51
2023-11-14T16:32:08.539Z,79.51
2023-11-14T16:35:12.689Z,81.75
2023-11-14T16:38:16.725Z,82.61
2023-11-14T16:41:20.615Z,81.40
2023-11-14T16:44:27.689Z,81.68
2023-11-14T16:47:35.113Z,81.18
2023-11-14T16:50:38.947Z,82.32
2023-11-14T16:53:43.046Z,82.90
2023-11-14T16:56:47.933Z,82.47
2023-11-14T16:59:52.216Z,81.07
2023-11-14T17:02:56.404Z,81.11
2023-11-14T17:06:00.318Z,80.61
2023-11-14T17:09:04.808Z,80.73
2023-11-14T17:12:09.336Z,81.80
2023-11-14T17:15:16.302Z,80.21
2023-11-14T17:18:20.481Z,82.83
2023-11-14T17:21:24.613Z,82.15
2023-11-14T17:24:29.312Z,83.41
2023-11-14T17:27:33.161Z,82.27
2023-11-14T17:30:41.873Z,82.32
2023-11-14T17:33:46.222Z,81.61
2023-11-14T17:36:50.440Z,81.26
2023-11-14T17:39:54.324Z,80.68
2023-11-14T17:42:58.575Z,82.16
2023-11-14T17:46:05.744Z,82.18
2023-11-14T17:49:13.748Z,82.76
2023-11-14T17:52:18.348Z,81.51
2023-11-14T17:55:23.701Z,81.83
2023-11-14T17:58:29.556Z,81.20
2023-11-14T18:01:34.352Z,80.69
2023-11-14T18:04:38.954Z,80.75
2023-11-14T18:07:43.049Z,79.06
2023-11-14T18:10:47.484Z,78.99
2023-11-14T18:13:55.071Z,77.77
2023-11-14T18:16:59.448Z,76.06
2023-11-14T18:20:07.618Z,76.91
2023-11-14T18:23:12.000Z,74.92
2023-11-14T18:26:15.792Z,74.54
2023-11-14T18:29:19.606Z,74.45
2023-11-14T18:32:24.335Z,76.34
2023-11-14T18:35:28.479Z,78.85
2023-11-14T18:38:32.737Z,81.12
2023-11-14T18:41:37.527Z,80.11
2023-11-14T18:44:50.749Z,79.96
2023-11-14T18:48:02.390Z,78.92
2023-11-14T18:51:06.902Z,77.96
2023-11-14T18:54:10.933Z,78.17
2023-11-14T18:57:14.945Z,76.49
2023-11-14T19:00:20.815Z,76.27
2023-11-14T19:03:25.615Z,75.46
2023-11-14T19:06:30.946Z,74.68
2023-11-14T19:09:35.650Z,74.39
2023-11-14T19:12:41.028Z,73.86
2023-11-14T19:15:45.542Z,74.55
2023-11-14T19:18:50.141Z,74.07
2023-11-14T19:21:54.221Z,73.63
2023-11-14T19:25:02.408Z,73.61
2023-11-14T19:28:09.450Z,75.25
2023-11-14T19:31:13.571Z,78.54
2023-11-14T19:34:19.343Z,77.14
2023-11-14T19:37:23.448Z,76.51
2023-11-14T19:40:28.243Z,76.14
2023-11-14T19:43:33.219Z,74.95
2023-11-14T19:46:37.483Z,75.57
2023-11-14T19:49:45.972Z,75.62
2023-11-14T19:52:50.594Z,75.84
2023-11-14T19:55:54.739Z,74.94
2023-11-14T19:58:59.489Z,74.17
2023-11-14T20:02:04.204Z,74.38
2023-11-14T20:05:09.688Z,76.34
2023-11-14T20:08:14.914Z,75.28
2023-11-14T20:11:19.102Z,76.84
2023-11-14T20:14:23.786Z,77.00
2023-11-14T20:17:27.670Z,76.09
2023-11-14T20:20:31.842Z,79.74
2023-11-14T20:23:36.298Z,79.88
2023-11-14T20:26:43.418Z,82.50
2023-11-14T20:29:49.680Z,83.46
2023-11-14T20:32:54.031Z,82.41
2023-11-14T20:35:58.340Z,83.10
2023-11-14T20:39:02.361Z,84.20
2023-11-14T20:42:07.054Z,85.37
2023-11-14T20:45:13.027Z,84.49
2023-11-14T20:48:18.629Z,84.15
2023-11-14T20:51:27.583Z,84.88
2023-11-14T20:54:32.330Z,83.07
2023-11-14T20:57:36.436Z,87.43
2023-11-14T21:00:40.551Z,87.37
2023-11-14T21:03:44.527Z,89.27
2023-11-14T21:06:48.679Z,90.14
2023-11-14T21:09:52.721Z,88.48
2023-11-14T21:12:56.645Z,87.51
2023-11-14T21:16:00.531Z,88.21
2023-11-14T21:19:04.939Z,88.50
2023-11-14T21:22:09.320Z,90.65
2023-11-14T21:25:13.766Z,89.03
2023-11-14T21:28:18.110Z,88.32
2023-11-14T21:31:22.003Z,87.22
2023-11-14T21:34:26.051Z,88.88
2023-11-14T21:37:30.435Z,90.59
2023-11-14T21:40:34.735Z,91.94
2023-11-14T21:43:40.252Z,89.35
2023-11-14T21:46:44.259Z,89.26
2023-11-14T21:49:48.330Z,89.25
2023-11-14T21:52:52.391Z,87.83
2023-11-14T21:55:56.347Z,88.74
2023-11-14T21:59:00.404Z,90.47
2023-11-14T22:02:05.026Z,89.85
2023-11-14T22:05:10.187Z,90.25
2023-11-14T22:08:14.475Z,90.88
2023-11-14T22:11:18.779Z,90.15
2023-11-14T22:14:22.848Z,89.36
2023-11-14T22:17:27.148Z,87.39
2023-11-14T22:20:31.484Z,91.42
2023-11-14T22:23:35.811Z,91.20
2023-11-14T22:26:40.256Z,91.44
2023-11-14T22:29:44.238Z,91.30
2023-11-14T22:32:48.729Z,90.90
2023-11-14T22:35:53.113Z,89.57
2023-11-14T22:38:57.460Z,92.16
2023-11-14T22:42:01.800Z,90.67
2023-11-14T22:45:09.006Z,89.81
2023-11-14T22:48:13.332Z,90.58
2023-11-14T22:51:17.296Z,89.56
2023-11-14T22:54:21.582Z,89.69
2023-11-14T22:57:26.029Z,90.22
2023-11-14T23:00:45.754Z,90.26
2023-11-14T23:03:50.085Z,91.17
2023-11-14T23:06:55.677Z,90.79
2023-11-14T23:10:00.203Z,91.03
2023-11-14T23:13:09.762Z,91.97
2023-11-14T23:16:13.664Z,90.64
2023-11-14T23:19:18.025Z,91.99
2023-11-14T23:22:22.301Z,91.02
2023-11-14T23:25:29.369Z,91.13
2023-11-14T23:28:33.487Z,90.59
2023-11-14T23:31:37.642Z,90.84
2023-11-14T23:34:41.797Z,89.88
2023-11-14T23:37:45.976Z,88.82
2023-11-14T23:40:51.521Z,89.66
2023-11-14T23:43:56.262Z,88.66
2023-11-14T23:47:00.730Z,90.30
2023-11-14T23:50:06.653Z,88.29
2023-11-14T23:53:11.839Z,90.02
2023-11-14T23:56:15.938Z,87.83
2023-11-14T23:59:20.084Z,87.93
